sensor_id;sensor_type;location;lat;lon;timestamp;temperature;humidity
2957;DHT22;1488;51.548;7.222;2023-05-31T00:02:07;24.10;76.00
2957;DHT22;1488;51.548;7.222;2023-05-31T00:04:34;24.10;76.30
2957;DHT22;1488;51.548;7.222;2023-05-31T00:07:04;24.10;76.20
2957;DHT22;1488;51.548;7.222;2023-05-31T00:09:30;24.10;76.10
2957;DHT22;1488;51.548;7.222;2023-05-31T00:11:57;24.10;76.20
2957;DHT22;1488;51.548;7.222;2023-05-31T00:14:24;24.10;76.10
2957;DHT22;1488;51.548;7.222;2023-05-31T00:16:52;24.10;76.20
2957;DHT22;1488;51.548;7.222;2023-05-31T00:19:19;24.10;76.00
2957;DHT22;1488;51.548;7.222;2023-05-31T00:21:46;24.10;76.00
2957;DHT22;1488;51.548;7.222;2023-05-31T00:24:15;24.10;76.10
2957;DHT22;1488;51.548;7.222;2023-05-31T00:26:42;24.10;76.40
2957;DHT22;1488;51.548;7.222;2023-05-31T00:29:09;24.10;76.30
2957;DHT22;1488;51.548;7.222;2023-05-31T00:31:36;24.10;76.30
2957;DHT22;1488;51.548;7.222;2023-05-31T00:34:02;24.10;76.20
2957;DHT22;1488;51.548;7.222;2023-05-31T00:36:30;24.10;76.20
2957;DHT22;1488;51.548;7.222;2023-05-31T00:38:57;24.10;76.10
2957;DHT22;1488;51.548;7.222;2023-05-31T00:41:25;24.10;76.30
2957;DHT22;1488;51.548;7.222;2023-05-31T00:43:52;24.10;76.00
2957;DHT22;1488;51.548;7.222;2023-05-31T00:46:25;24.10;76.10
2957;DHT22;1488;51.548;7.222;2023-05-31T00:48:52;24.10;76.20
2957;DHT22;1488;51.548;7.222;2023-05-31T00:51:20;24.10;76.10
2957;DHT22;1488;51.548;7.222;2023-05-31T00:53:47;24.10;76.00
2957;DHT22;1488;51.548;7.222;2023-05-31T00:56:15;24.10;76.20
2957;DHT22;1488;51.548;7.222;2023-05-31T00:58:44;24.10;76.20
2957;DHT22;1488;51.548;7.222;2023-05-31T01:01:13;24.10;76.10
2957;DHT22;1488;51.548;7.222;2023-05-31T01:03:40;24.10;76.30
2957;DHT22;1488;51.548;7.222;2023-05-31T01:06:07;24.10;76.20
2957;DHT22;1488;51.548;7.222;2023-05-31T01:08:34;24.10;76.10
2957;DHT22;1488;51.548;7.222;2023-05-31T01:11:07;24.00;76.00
2957;DHT22;1488;51.548;7.222;2023-05-31T01:13:41;24.10;76.00
2957;DHT22;1488;51.548;7.222;2023-05-31T01:16:16;24.00;76.10
2957;DHT22;1488;51.548;7.222;2023-05-31T01:18:45;24.00;76.10
2957;DHT22;1488;51.548;7.222;2023-05-31T01:21:16;24.00;75.90
2957;DHT22;1488;51.548;7.222;2023-05-31T01:23:55;24.10;75.90
2957;DHT22;1488;51.548;7.222;2023-05-31T01:26:35;24.00;75.80
2957;DHT22;1488;51.548;7.222;2023-05-31T01:29:05;24.10;75.90
2957;DHT22;1488;51.548;7.222;2023-05-31T01:31:34;24.00;75.80
2957;DHT22;1488;51.548;7.222;2023-05-31T01:34:02;24.00;75.80
2957;DHT22;1488;51.548;7.222;2023-05-31T01:36:29;24.00;75.80
2957;DHT22;1488;51.548;7.222;2023-05-31T01:38:56;24.00;75.90
2957;DHT22;1488;51.548;7.222;2023-05-31T01:41:24;24.00;76.00
2957;DHT22;1488;51.548;7.222;2023-05-31T01:43:54;24.00;77.00
2957;DHT22;1488;51.548;7.222;2023-05-31T01:46:21;24.00;76.20
2957;DHT22;1488;51.548;7.222;2023-05-31T01:48:48;24.00;76.90
2957;DHT22;1488;51.548;7.222;2023-05-31T01:51:17;24.00;76.00
2957;DHT22;1488;51.548;7.222;2023-05-31T01:53:45;24.00;75.90
2957;DHT22;1488;51.548;7.222;2023-05-31T01:56:13;24.00;75.90
2957;DHT22;1488;51.548;7.222;2023-05-31T01:58:41;24.00;75.70
2957;DHT22;1488;51.548;7.222;2023-05-31T02:01:12;24.00;75.80
2957;DHT22;1488;51.548;7.222;2023-05-31T02:03:39;24.00;75.90
2957;DHT22;1488;51.548;7.222;2023-05-31T02:06:06;24.00;75.70
2957;DHT22;1488;51.548;7.222;2023-05-31T02:08:33;24.00;75.80
2957;DHT22;1488;51.548;7.222;2023-05-31T02:11:00;24.00;75.70
2957;DHT22;1488;51.548;7.222;2023-05-31T02:13:28;24.00;76.00
2957;DHT22;1488;51.548;7.222;2023-05-31T02:15:55;24.00;76.10
2957;DHT22;1488;51.548;7.222;2023-05-31T02:18:24;23.90;75.80
2957;DHT22;1488;51.548;7.222;2023-05-31T02:20:52;24.00;76.10
2957;DHT22;1488;51.548;7.222;2023-05-31T02:23:19;23.90;75.80
2957;DHT22;1488;51.548;7.222;2023-05-31T02:25:46;23.90;75.90
2957;DHT22;1488;51.548;7.222;2023-05-31T02:28:14;23.90;75.80
2957;DHT22;1488;51.548;7.222;2023-05-31T02:30:41;23.90;75.90
2957;DHT22;1488;51.548;7.222;2023-05-31T02:33:08;23.90;75.90
2957;DHT22;1488;51.548;7.222;2023-05-31T02:35:36;23.90;76.00
2957;DHT22;1488;51.548;7.222;2023-05-31T02:38:03;23.90;76.00
2957;DHT22;1488;51.548;7.222;2023-05-31T02:40:30;23.90;76.20
2957;DHT22;1488;51.548;7.222;2023-05-31T02:42:57;23.90;76.10
2957;DHT22;1488;51.548;7.222;2023-05-31T02:45:24;23.90;76.00
2957;DHT22;1488;51.548;7.222;2023-05-31T02:47:50;23.90;76.10
2957;DHT22;1488;51.548;7.222;2023-05-31T02:50:17;23.90;76.20
2957;DHT22;1488;51.548;7.222;2023-05-31T02:52:45;23.90;76.10
2957;DHT22;1488;51.548;7.222;2023-05-31T02:55:12;23.90;76.00
2957;DHT22;1488;51.548;7.222;2023-05-31T02:57:39;23.90;76.00
2957;DHT22;1488;51.548;7.222;2023-05-31T03:00:06;23.90;76.00
2957;DHT22;1488;51.548;7.222;2023-05-31T03:02:38;23.80;75.80
2957;DHT22;1488;51.548;7.222;2023-05-31T03:05:06;23.90;76.00
2957;DHT22;1488;51.548;7.222;2023-05-31T03:07:34;23.80;76.10
2957;DHT22;1488;51.548;7.222;2023-05-31T03:10:03;23.80;76.20
2957;DHT22;1488;51.548;7.222;2023-05-31T03:12:30;23.80;76.30
2957;DHT22;1488;51.548;7.222;2023-05-31T03:14:57;23.80;76.30
2957;DHT22;1488;51.548;7.222;2023-05-31T03:17:24;23.80;76.30
2957;DHT22;1488;51.548;7.222;2023-05-31T03:19:51;23.80;76.10
2957;DHT22;1488;51.548;7.222;2023-05-31T03:22:18;23.80;76.30
2957;DHT22;1488;51.548;7.222;2023-05-31T03:24:46;23.80;76.30
2957;DHT22;1488;51.548;7.222;2023-05-31T03:27:14;23.80;76.40
2957;DHT22;1488;51.548;7.222;2023-05-31T03:29:42;23.80;76.10
2957;DHT22;1488;51.548;7.222;2023-05-31T03:32:09;23.80;76.10
2957;DHT22;1488;51.548;7.222;2023-05-31T03:34:35;23.80;76.20
2957;DHT22;1488;51.548;7.222;2023-05-31T03:37:03;23.90;76.30
2957;DHT22;1488;51.548;7.222;2023-05-31T03:39:29;23.80;76.10
2957;DHT22;1488;51.548;7.222;2023-05-31T03:41:57;23.80;76.50
2957;DHT22;1488;51.548;7.222;2023-05-31T03:44:25;23.80;76.50
2957;DHT22;1488;51.548;7.222;2023-05-31T03:46:51;23.80;76.40
2957;DHT22;1488;51.548;7.222;2023-05-31T03:49:19;23.80;76.30
2957;DHT22;1488;51.548;7.222;2023-05-31T03:51:45;23.80;76.20
2957;DHT22;1488;51.548;7.222;2023-05-31T03:54:12;23.80;76.20
2957;DHT22;1488;51.548;7.222;2023-05-31T03:56:39;23.80;76.10
2957;DHT22;1488;51.548;7.222;2023-05-31T03:59:06;23.80;76.20
2957;DHT22;1488;51.548;7.222;2023-05-31T04:01:34;23.80;75.80
2957;DHT22;1488;51.548;7.222;2023-05-31T04:04:01;23.80;76.10
2957;DHT22;1488;51.548;7.222;2023-05-31T04:06:28;23.80;76.10
2957;DHT22;1488;51.548;7.222;2023-05-31T04:08:55;23.80;77.00
2957;DHT22;1488;51.548;7.222;2023-05-31T04:11:22;23.80;75.90
2957;DHT22;1488;51.548;7.222;2023-05-31T04:13:48;23.80;76.10
2957;DHT22;1488;51.548;7.222;2023-05-31T04:16:15;23.80;76.00
2957;DHT22;1488;51.548;7.222;2023-05-31T04:18:43;23.80;75.80
2957;DHT22;1488;51.548;7.222;2023-05-31T04:21:10;23.80;76.40
2957;DHT22;1488;51.548;7.222;2023-05-31T04:23:37;23.80;76.30
2957;DHT22;1488;51.548;7.222;2023-05-31T04:26:04;23.80;76.20
2957;DHT22;1488;51.548;7.222;2023-05-31T04:28:32;23.80;76.20
2957;DHT22;1488;51.548;7.222;2023-05-31T04:31:00;23.80;76.10
2957;DHT22;1488;51.548;7.222;2023-05-31T04:33:27;23.80;76.90
2957;DHT22;1488;51.548;7.222;2023-05-31T04:35:56;23.80;76.50
2957;DHT22;1488;51.548;7.222;2023-05-31T04:38:24;23.80;76.50
2957;DHT22;1488;51.548;7.222;2023-05-31T04:40:53;23.80;76.50
2957;DHT22;1488;51.548;7.222;2023-05-31T04:43:20;23.80;76.90
2957;DHT22;1488;51.548;7.222;2023-05-31T04:45:47;24.00;76.90
2957;DHT22;1488;51.548;7.222;2023-05-31T04:48:15;23.80;76.60
2957;DHT22;1488;51.548;7.222;2023-05-31T04:50:42;23.70;76.70
2957;DHT22;1488;51.548;7.222;2023-05-31T04:53:10;23.70;76.70
2957;DHT22;1488;51.548;7.222;2023-05-31T04:55:37;23.80;76.80
2957;DHT22;1488;51.548;7.222;2023-05-31T04:58:04;23.70;76.90
2957;DHT22;1488;51.548;7.222;2023-05-31T05:00:31;23.70;76.90
2957;DHT22;1488;51.548;7.222;2023-05-31T05:02:58;23.80;77.10
2957;DHT22;1488;51.548;7.222;2023-05-31T05:05:25;23.70;77.00
2957;DHT22;1488;51.548;7.222;2023-05-31T05:07:52;23.70;77.10
2957;DHT22;1488;51.548;7.222;2023-05-31T05:10:20;23.70;78.00
2957;DHT22;1488;51.548;7.222;2023-05-31T05:12:47;23.90;77.40
2957;DHT22;1488;51.548;7.222;2023-05-31T05:15:14;23.70;77.30
2957;DHT22;1488;51.548;7.222;2023-05-31T05:17:40;23.70;77.30
2957;DHT22;1488;51.548;7.222;2023-05-31T05:20:10;23.70;77.40
2957;DHT22;1488;51.548;7.222;2023-05-31T05:22:37;23.80;77.60
2957;DHT22;1488;51.548;7.222;2023-05-31T05:25:05;23.70;77.60
2957;DHT22;1488;51.548;7.222;2023-05-31T05:27:33;23.80;77.80
2957;DHT22;1488;51.548;7.222;2023-05-31T05:30:00;23.80;77.70
2957;DHT22;1488;51.548;7.222;2023-05-31T05:32:28;23.80;78.00
2957;DHT22;1488;51.548;7.222;2023-05-31T05:34:55;23.80;77.90
2957;DHT22;1488;51.548;7.222;2023-05-31T05:37:22;23.80;77.90
2957;DHT22;1488;51.548;7.222;2023-05-31T05:39:48;23.80;78.10
2957;DHT22;1488;51.548;7.222;2023-05-31T05:42:15;23.80;77.90
2957;DHT22;1488;51.548;7.222;2023-05-31T05:44:44;23.80;78.10
2957;DHT22;1488;51.548;7.222;2023-05-31T05:47:13;23.80;77.90
2957;DHT22;1488;51.548;7.222;2023-05-31T05:49:39;23.80;78.20
2957;DHT22;1488;51.548;7.222;2023-05-31T05:52:06;23.80;78.40
2957;DHT22;1488;51.548;7.222;2023-05-31T05:54:33;23.70;78.40
2957;DHT22;1488;51.548;7.222;2023-05-31T05:57:00;23.50;78.80
2957;DHT22;1488;51.548;7.222;2023-05-31T05:59:27;23.40;79.20
2957;DHT22;1488;51.548;7.222;2023-05-31T06:01:55;23.20;79.50
2957;DHT22;1488;51.548;7.222;2023-05-31T06:04:22;23.10;79.80
2957;DHT22;1488;51.548;7.222;2023-05-31T06:06:49;23.20;80.20
2957;DHT22;1488;51.548;7.222;2023-05-31T06:09:15;23.00;80.00
2957;DHT22;1488;51.548;7.222;2023-05-31T06:11:42;23.00;79.90
2957;DHT22;1488;51.548;7.222;2023-05-31T06:14:09;23.10;79.50
2957;DHT22;1488;51.548;7.222;2023-05-31T06:16:36;23.20;79.70
2957;DHT22;1488;51.548;7.222;2023-05-31T06:19:04;23.20;79.40
2957;DHT22;1488;51.548;7.222;2023-05-31T06:21:31;23.20;79.20
2957;DHT22;1488;51.548;7.222;2023-05-31T06:23:58;23.30;79.40
2957;DHT22;1488;51.548;7.222;2023-05-31T06:26:25;23.30;79.70
2957;DHT22;1488;51.548;7.222;2023-05-31T06:28:52;23.40;79.70
2957;DHT22;1488;51.548;7.222;2023-05-31T06:31:19;23.40;80.00
2957;DHT22;1488;51.548;7.222;2023-05-31T06:33:45;23.40;80.00
2957;DHT22;1488;51.548;7.222;2023-05-31T06:36:15;23.40;79.70
2957;DHT22;1488;51.548;7.222;2023-05-31T06:38:42;23.50;79.70
2957;DHT22;1488;51.548;7.222;2023-05-31T06:41:09;23.50;79.80
2957;DHT22;1488;51.548;7.222;2023-05-31T06:43:36;23.50;79.50
2957;DHT22;1488;51.548;7.222;2023-05-31T06:46:03;23.60;79.50
2957;DHT22;1488;51.548;7.222;2023-05-31T06:48:32;23.60;80.00
2957;DHT22;1488;51.548;7.222;2023-05-31T06:50:59;23.60;79.80
2957;DHT22;1488;51.548;7.222;2023-05-31T06:53:27;23.60;79.50
2957;DHT22;1488;51.548;7.222;2023-05-31T06:55:54;23.80;79.60
2957;DHT22;1488;51.548;7.222;2023-05-31T06:58:21;23.60;79.30
2957;DHT22;1488;51.548;7.222;2023-05-31T07:00:48;23.60;79.20
2957;DHT22;1488;51.548;7.222;2023-05-31T07:03:15;23.70;79.30
2957;DHT22;1488;51.548;7.222;2023-05-31T07:05:42;23.70;79.30
2957;DHT22;1488;51.548;7.222;2023-05-31T07:08:09;23.70;79.20
2957;DHT22;1488;51.548;7.222;2023-05-31T07:10:37;23.70;79.30
2957;DHT22;1488;51.548;7.222;2023-05-31T07:13:04;23.70;79.00
2957;DHT22;1488;51.548;7.222;2023-05-31T07:15:31;23.70;79.40
2957;DHT22;1488;51.548;7.222;2023-05-31T07:17:57;23.70;79.30
2957;DHT22;1488;51.548;7.222;2023-05-31T07:20:24;23.70;79.40
2957;DHT22;1488;51.548;7.222;2023-05-31T07:22:51;23.70;79.40
2957;DHT22;1488;51.548;7.222;2023-05-31T07:25:18;23.70;79.50
2957;DHT22;1488;51.548;7.222;2023-05-31T07:27:46;23.70;79.40
2957;DHT22;1488;51.548;7.222;2023-05-31T07:30:13;23.80;79.50
2957;DHT22;1488;51.548;7.222;2023-05-31T07:32:39;23.70;79.90
2957;DHT22;1488;51.548;7.222;2023-05-31T07:35:07;23.80;79.30
2957;DHT22;1488;51.548;7.222;2023-05-31T07:37:34;23.80;79.20
2957;DHT22;1488;51.548;7.222;2023-05-31T07:40:00;23.80;79.10
2957;DHT22;1488;51.548;7.222;2023-05-31T07:42:28;23.80;79.30
2957;DHT22;1488;51.548;7.222;2023-05-31T07:44:57;23.80;79.20
2957;DHT22;1488;51.548;7.222;2023-05-31T07:47:24;23.80;79.10
2957;DHT22;1488;51.548;7.222;2023-05-31T07:49:51;23.80;79.50
2957;DHT22;1488;51.548;7.222;2023-05-31T07:52:18;23.80;79.40
2957;DHT22;1488;51.548;7.222;2023-05-31T07:54:47;23.90;79.60
2957;DHT22;1488;51.548;7.222;2023-05-31T07:57:14;23.90;79.60
2957;DHT22;1488;51.548;7.222;2023-05-31T07:59:42;23.90;79.50
2957;DHT22;1488;51.548;7.222;2023-05-31T08:02:10;23.80;79.20
2957;DHT22;1488;51.548;7.222;2023-05-31T08:04:37;23.80;79.30
2957;DHT22;1488;51.548;7.222;2023-05-31T08:07:04;23.90;79.60
2957;DHT22;1488;51.548;7.222;2023-05-31T08:09:32;23.90;79.60
2957;DHT22;1488;51.548;7.222;2023-05-31T08:11:58;23.90;79.40
2957;DHT22;1488;51.548;7.222;2023-05-31T08:14:25;23.90;79.50
2957;DHT22;1488;51.548;7.222;2023-05-31T08:16:52;24.10;79.60
2957;DHT22;1488;51.548;7.222;2023-05-31T08:19:20;24.00;79.40
2957;DHT22;1488;51.548;7.222;2023-05-31T08:21:47;24.00;79.60
2957;DHT22;1488;51.548;7.222;2023-05-31T08:24:17;24.00;79.70
2957;DHT22;1488;51.548;7.222;2023-05-31T08:26:45;24.20;79.70
2957;DHT22;1488;51.548;7.222;2023-05-31T08:29:12;24.00;79.60
2957;DHT22;1488;51.548;7.222;2023-05-31T08:31:39;24.10;79.90
2957;DHT22;1488;51.548;7.222;2023-05-31T08:34:06;24.10;80.10
2957;DHT22;1488;51.548;7.222;2023-05-31T08:36:34;24.10;80.80
2957;DHT22;1488;51.548;7.222;2023-05-31T08:39:01;24.20;80.30
2957;DHT22;1488;51.548;7.222;2023-05-31T08:41:30;24.20;80.30
2957;DHT22;1488;51.548;7.222;2023-05-31T08:44:01;24.20;80.00
2957;DHT22;1488;51.548;7.222;2023-05-31T08:46:28;24.30;80.50
2957;DHT22;1488;51.548;7.222;2023-05-31T08:49:00;24.30;80.50
2957;DHT22;1488;51.548;7.222;2023-05-31T08:51:28;24.40;81.90
2957;DHT22;1488;51.548;7.222;2023-05-31T08:53:58;24.40;81.80
2957;DHT22;1488;51.548;7.222;2023-05-31T08:56:26;24.40;82.00
2957;DHT22;1488;51.548;7.222;2023-05-31T08:58:54;24.40;79.30
2957;DHT22;1488;51.548;7.222;2023-05-31T09:01:21;24.50;79.00
2957;DHT22;1488;51.548;7.222;2023-05-31T09:03:50;24.50;78.20
2957;DHT22;1488;51.548;7.222;2023-05-31T09:06:17;24.50;78.00
2957;DHT22;1488;51.548;7.222;2023-05-31T09:08:44;24.50;78.80
2957;DHT22;1488;51.548;7.222;2023-05-31T09:11:13;24.60;77.80
2957;DHT22;1488;51.548;7.222;2023-05-31T09:13:40;24.60;78.10
2957;DHT22;1488;51.548;7.222;2023-05-31T09:16:08;24.60;78.00
2957;DHT22;1488;51.548;7.222;2023-05-31T09:18:37;24.60;77.90
2957;DHT22;1488;51.548;7.222;2023-05-31T09:21:08;24.60;78.10
2957;DHT22;1488;51.548;7.222;2023-05-31T09:23:35;24.70;78.10
2957;DHT22;1488;51.548;7.222;2023-05-31T09:26:05;24.70;77.80
2957;DHT22;1488;51.548;7.222;2023-05-31T09:28:34;24.70;77.80
2957;DHT22;1488;51.548;7.222;2023-05-31T09:31:02;24.70;77.60
2957;DHT22;1488;51.548;7.222;2023-05-31T09:33:41;24.80;77.70
2957;DHT22;1488;51.548;7.222;2023-05-31T09:36:08;24.80;77.60
2957;DHT22;1488;51.548;7.222;2023-05-31T09:38:36;24.90;77.60
2957;DHT22;1488;51.548;7.222;2023-05-31T09:41:14;24.80;77.60
2957;DHT22;1488;51.548;7.222;2023-05-31T09:43:43;24.70;77.30
2957;DHT22;1488;51.548;7.222;2023-05-31T09:46:13;24.90;77.60
2957;DHT22;1488;51.548;7.222;2023-05-31T09:48:41;24.70;77.30
2957;DHT22;1488;51.548;7.222;2023-05-31T09:51:08;24.70;77.30
2957;DHT22;1488;51.548;7.222;2023-05-31T09:53:39;24.70;77.10
2957;DHT22;1488;51.548;7.222;2023-05-31T09:56:18;24.80;77.40
2957;DHT22;1488;51.548;7.222;2023-05-31T09:58:47;24.80;77.30
2957;DHT22;1488;51.548;7.222;2023-05-31T10:01:15;24.80;76.60
2957;DHT22;1488;51.548;7.222;2023-05-31T10:03:43;24.70;76.20
2957;DHT22;1488;51.548;7.222;2023-05-31T10:06:10;24.70;76.20
2957;DHT22;1488;51.548;7.222;2023-05-31T10:08:38;24.60;76.20
2957;DHT22;1488;51.548;7.222;2023-05-31T10:11:05;24.60;76.30
2957;DHT22;1488;51.548;7.222;2023-05-31T10:13:32;24.60;76.40
2957;DHT22;1488;51.548;7.222;2023-05-31T10:16:04;24.50;76.20
2957;DHT22;1488;51.548;7.222;2023-05-31T10:18:33;24.50;76.10
2957;DHT22;1488;51.548;7.222;2023-05-31T10:21:08;24.50;76.30
2957;DHT22;1488;51.548;7.222;2023-05-31T10:23:40;24.50;76.30
2957;DHT22;1488;51.548;7.222;2023-05-31T10:26:13;24.50;76.40
2957;DHT22;1488;51.548;7.222;2023-05-31T10:28:45;24.50;76.20
2957;DHT22;1488;51.548;7.222;2023-05-31T10:31:14;24.40;76.30
2957;DHT22;1488;51.548;7.222;2023-05-31T10:33:46;24.50;76.30
2957;DHT22;1488;51.548;7.222;2023-05-31T10:36:14;24.50;76.20
2957;DHT22;1488;51.548;7.222;2023-05-31T10:38:47;24.70;76.20
2957;DHT22;1488;51.548;7.222;2023-05-31T10:41:18;24.40;75.70
2957;DHT22;1488;51.548;7.222;2023-05-31T10:43:50;24.40;75.70
2957;DHT22;1488;51.548;7.222;2023-05-31T10:46:24;24.40;76.10
2957;DHT22;1488;51.548;7.222;2023-05-31T10:48:53;24.40;76.20
2957;DHT22;1488;51.548;7.222;2023-05-31T10:51:37;24.40;76.30
2957;DHT22;1488;51.548;7.222;2023-05-31T10:54:04;24.40;76.50
2957;DHT22;1488;51.548;7.222;2023-05-31T10:56:32;24.30;76.30
2957;DHT22;1488;51.548;7.222;2023-05-31T10:58:58;24.30;76.20
2957;DHT22;1488;51.548;7.222;2023-05-31T11:01:30;24.30;76.20
2957;DHT22;1488;51.548;7.222;2023-05-31T11:03:56;24.30;76.10
2957;DHT22;1488;51.548;7.222;2023-05-31T11:06:27;24.30;76.10
2957;DHT22;1488;51.548;7.222;2023-05-31T11:08:59;24.30;76.10
2957;DHT22;1488;51.548;7.222;2023-05-31T11:11:43;24.30;76.20
2957;DHT22;1488;51.548;7.222;2023-05-31T11:14:27;24.30;76.20
2957;DHT22;1488;51.548;7.222;2023-05-31T11:17:15;24.20;76.00
2957;DHT22;1488;51.548;7.222;2023-05-31T11:19:42;24.30;76.00
2957;DHT22;1488;51.548;7.222;2023-05-31T11:22:13;24.20;75.80
2957;DHT22;1488;51.548;7.222;2023-05-31T11:24:48;24.20;75.80
2957;DHT22;1488;51.548;7.222;2023-05-31T11:27:18;24.20;75.90
2957;DHT22;1488;51.548;7.222;2023-05-31T11:29:58;24.20;76.00
2957;DHT22;1488;51.548;7.222;2023-05-31T11:35:36;24.20;75.90
2957;DHT22;1488;51.548;7.222;2023-05-31T11:38:03;24.20;76.70
2957;DHT22;1488;51.548;7.222;2023-05-31T11:40:31;24.20;75.80
2957;DHT22;1488;51.548;7.222;2023-05-31T11:43:08;24.20;75.80
2957;DHT22;1488;51.548;7.222;2023-05-31T11:45:46;24.20;75.70
2957;DHT22;1488;51.548;7.222;2023-05-31T11:48:38;24.20;75.70
2957;DHT22;1488;51.548;7.222;2023-05-31T11:51:08;24.20;75.70
2957;DHT22;1488;51.548;7.222;2023-05-31T11:53:35;24.10;75.70
2957;DHT22;1488;51.548;7.222;2023-05-31T11:56:03;24.20;75.80
2957;DHT22;1488;51.548;7.222;2023-05-31T11:58:32;24.20;75.70
2957;DHT22;1488;51.548;7.222;2023-05-31T12:00:59;24.20;75.80
2957;DHT22;1488;51.548;7.222;2023-05-31T12:03:27;24.20;75.50
2957;DHT22;1488;51.548;7.222;2023-05-31T12:05:57;24.10;76.40
2957;DHT22;1488;51.548;7.222;2023-05-31T12:08:27;24.20;75.60
2957;DHT22;1488;51.548;7.222;2023-05-31T12:11:00;24.20;75.60
2957;DHT22;1488;51.548;7.222;2023-05-31T12:13:28;24.10;75.70
2957;DHT22;1488;51.548;7.222;2023-05-31T12:15:55;24.40;76.00
2957;DHT22;1488;51.548;7.222;2023-05-31T12:18:22;24.10;75.70
2957;DHT22;1488;51.548;7.222;2023-05-31T12:20:50;24.20;75.70
2957;DHT22;1488;51.548;7.222;2023-05-31T12:23:16;24.10;75.70
2957;DHT22;1488;51.548;7.222;2023-05-31T12:25:47;24.20;75.80
2957;DHT22;1488;51.548;7.222;2023-05-31T12:28:16;24.20;75.80
2957;DHT22;1488;51.548;7.222;2023-05-31T12:30:44;24.10;75.70
2957;DHT22;1488;51.548;7.222;2023-05-31T12:33:11;24.20;76.00
2957;DHT22;1488;51.548;7.222;2023-05-31T12:35:43;24.10;75.80
2957;DHT22;1488;51.548;7.222;2023-05-31T12:38:10;24.20;76.10
2957;DHT22;1488;51.548;7.222;2023-05-31T12:40:37;24.20;76.10
2957;DHT22;1488;51.548;7.222;2023-05-31T12:43:06;24.20;76.20
2957;DHT22;1488;51.548;7.222;2023-05-31T12:45:38;24.20;76.30
2957;DHT22;1488;51.548;7.222;2023-05-31T12:48:07;24.20;77.50
2957;DHT22;1488;51.548;7.222;2023-05-31T12:50:35;24.20;77.50
2957;DHT22;1488;51.548;7.222;2023-05-31T12:53:05;24.20;77.30
2957;DHT22;1488;51.548;7.222;2023-05-31T12:55:32;24.30;77.50
2957;DHT22;1488;51.548;7.222;2023-05-31T12:58:00;24.30;77.40
2957;DHT22;1488;51.548;7.222;2023-05-31T13:00:28;24.40;77.50
2957;DHT22;1488;51.548;7.222;2023-05-31T13:02:55;24.40;77.60
2957;DHT22;1488;51.548;7.222;2023-05-31T13:05:22;24.40;77.50
2957;DHT22;1488;51.548;7.222;2023-05-31T13:07:51;24.40;77.60
2957;DHT22;1488;51.548;7.222;2023-05-31T13:10:18;24.40;77.50
2957;DHT22;1488;51.548;7.222;2023-05-31T13:12:45;24.40;77.50
2957;DHT22;1488;51.548;7.222;2023-05-31T13:15:11;24.50;77.30
2957;DHT22;1488;51.548;7.222;2023-05-31T13:17:39;24.40;77.20
2957;DHT22;1488;51.548;7.222;2023-05-31T13:20:07;24.50;77.20
2957;DHT22;1488;51.548;7.222;2023-05-31T13:22:34;24.50;77.20
2957;DHT22;1488;51.548;7.222;2023-05-31T13:25:01;24.50;77.10
2957;DHT22;1488;51.548;7.222;2023-05-31T13:27:28;24.50;77.40
2957;DHT22;1488;51.548;7.222;2023-05-31T13:29:55;24.50;77.20
2957;DHT22;1488;51.548;7.222;2023-05-31T13:32:21;24.60;77.60
2957;DHT22;1488;51.548;7.222;2023-05-31T13:34:49;24.50;77.40
2957;DHT22;1488;51.548;7.222;2023-05-31T13:37:16;24.60;77.50
2957;DHT22;1488;51.548;7.222;2023-05-31T13:39:46;24.60;77.40
2957;DHT22;1488;51.548;7.222;2023-05-31T13:42:13;24.60;77.50
2957;DHT22;1488;51.548;7.222;2023-05-31T13:44:40;24.50;77.30
2957;DHT22;1488;51.548;7.222;2023-05-31T13:47:07;24.50;76.30
2957;DHT22;1488;51.548;7.222;2023-05-31T13:49:34;24.40;76.30
2957;DHT22;1488;51.548;7.222;2023-05-31T13:52:02;24.50;77.40
2957;DHT22;1488;51.548;7.222;2023-05-31T13:54:30;24.50;78.10
2957;DHT22;1488;51.548;7.222;2023-05-31T13:56:57;24.40;77.10
2957;DHT22;1488;51.548;7.222;2023-05-31T13:59:24;24.50;77.20
2957;DHT22;1488;51.548;7.222;2023-05-31T14:01:52;24.50;78.10
2957;DHT22;1488;51.548;7.222;2023-05-31T14:04:18;24.50;77.10
2957;DHT22;1488;51.548;7.222;2023-05-31T14:06:45;24.70;77.30
2957;DHT22;1488;51.548;7.222;2023-05-31T14:09:13;24.50;77.00
2957;DHT22;1488;51.548;7.222;2023-05-31T14:11:40;24.60;77.10
2957;DHT22;1488;51.548;7.222;2023-05-31T14:14:07;24.50;77.20
2957;DHT22;1488;51.548;7.222;2023-05-31T14:16:34;24.50;77.10
2957;DHT22;1488;51.548;7.222;2023-05-31T14:19:01;24.50;77.10
2957;DHT22;1488;51.548;7.222;2023-05-31T14:21:28;24.60;77.30
2957;DHT22;1488;51.548;7.222;2023-05-31T14:23:55;24.50;77.20
2957;DHT22;1488;51.548;7.222;2023-05-31T14:26:23;24.50;77.30
2957;DHT22;1488;51.548;7.222;2023-05-31T14:28:49;24.80;77.60
2957;DHT22;1488;51.548;7.222;2023-05-31T14:31:16;24.50;77.50
2957;DHT22;1488;51.548;7.222;2023-05-31T14:33:43;24.50;77.30
2957;DHT22;1488;51.548;7.222;2023-05-31T14:36:09;24.50;77.30
2957;DHT22;1488;51.548;7.222;2023-05-31T14:38:36;24.60;77.60
2957;DHT22;1488;51.548;7.222;2023-05-31T14:41:03;24.60;77.40
2957;DHT22;1488;51.548;7.222;2023-05-31T14:43:31;24.50;77.40
2957;DHT22;1488;51.548;7.222;2023-05-31T14:45:58;24.50;77.40
2957;DHT22;1488;51.548;7.222;2023-05-31T14:48:25;24.50;77.30
2957;DHT22;1488;51.548;7.222;2023-05-31T14:50:51;24.50;77.30
2957;DHT22;1488;51.548;7.222;2023-05-31T14:53:18;24.50;77.50
2957;DHT22;1488;51.548;7.222;2023-05-31T14:55:45;24.50;77.20
2957;DHT22;1488;51.548;7.222;2023-05-31T14:58:12;24.50;77.30
2957;DHT22;1488;51.548;7.222;2023-05-31T15:00:40;24.50;76.70
2957;DHT22;1488;51.548;7.222;2023-05-31T15:03:07;24.60;76.70
2957;DHT22;1488;51.548;7.222;2023-05-31T15:05:34;24.40;76.60
2957;DHT22;1488;51.548;7.222;2023-05-31T15:08:00;24.40;77.50
2957;DHT22;1488;51.548;7.222;2023-05-31T15:10:27;24.50;77.30
2957;DHT22;1488;51.548;7.222;2023-05-31T15:12:54;24.40;77.10
2957;DHT22;1488;51.548;7.222;2023-05-31T15:15:21;24.40;77.10
2957;DHT22;1488;51.548;7.222;2023-05-31T15:17:49;24.30;77.00
2957;DHT22;1488;51.548;7.222;2023-05-31T15:20:17;24.30;77.00
2957;DHT22;1488;51.548;7.222;2023-05-31T15:22:44;24.20;76.90
2957;DHT22;1488;51.548;7.222;2023-05-31T15:25:10;24.20;76.80
2957;DHT22;1488;51.548;7.222;2023-05-31T15:27:37;24.30;77.10
2957;DHT22;1488;51.548;7.222;2023-05-31T15:30:05;24.20;77.00
2957;DHT22;1488;51.548;7.222;2023-05-31T15:32:32;24.20;76.90
2957;DHT22;1488;51.548;7.222;2023-05-31T15:35:00;24.20;77.10
2957;DHT22;1488;51.548;7.222;2023-05-31T15:37:27;24.10;77.00
2957;DHT22;1488;51.548;7.222;2023-05-31T15:39:54;24.10;77.00
2957;DHT22;1488;51.548;7.222;2023-05-31T15:42:20;24.10;77.10
2957;DHT22;1488;51.548;7.222;2023-05-31T15:44:47;24.10;77.00
2957;DHT22;1488;51.548;7.222;2023-05-31T15:47:15;24.10;77.10
2957;DHT22;1488;51.548;7.222;2023-05-31T15:49:42;24.10;77.20
2957;DHT22;1488;51.548;7.222;2023-05-31T15:52:10;24.10;77.00
2957;DHT22;1488;51.548;7.222;2023-05-31T15:54:37;24.10;77.20
2957;DHT22;1488;51.548;7.222;2023-05-31T15:57:04;24.10;77.30
2957;DHT22;1488;51.548;7.222;2023-05-31T15:59:31;24.10;77.10
2957;DHT22;1488;51.548;7.222;2023-05-31T16:01:58;24.10;77.40
2957;DHT22;1488;51.548;7.222;2023-05-31T16:04:25;24.10;77.30
2957;DHT22;1488;51.548;7.222;2023-05-31T16:06:52;24.10;77.20
2957;DHT22;1488;51.548;7.222;2023-05-31T16:09:20;24.10;77.30
2957;DHT22;1488;51.548;7.222;2023-05-31T16:11:47;24.10;77.20